Terminal Aerodrome Forecast
Issued by NWS Cleveland, OH

Home | Current Version | Previous Version | Graphics & Text | Print | Product List | Glossary On
Versions: 1 2 3 4 5 6 7 8 9 10 11 12 13 14 15 16 17 18 19 20 21 22 23
798
FTUS41 KCLE 082033 AAA
TAFCAK
TAF AMD
KCAK 082033Z 0821/0918 24008KT 1 1/2SM -SN OVC008
      TEMPO 0821/0824 3/4SM -SN BR OVC004
     FM090000 27005KT 4SM BR OVC012
     FM090400 28004KT 2SM -SN BR OVC006
     FM091500 28007KT 5SM -SHSN OVC012=

USA.gov is the U.S. government's official web portal to all federal, state and local government web resources and services.